Cameron, Arizona
Current Conditions -  °F | °C
As of 2:54 PM on Thursday 27 Nov 2014 (Local Time) from KGCN Reporting Station
Clear Clear  
Wind Chill: 66°   Ceiling: Unl
Heat Index: 66°   Visibility: 10mi
Dew Point:   Wind: 3mph
Humidity: 8%   Direction: 270°W
Pressure: 30.36"   Gusts: NA
Location:  35.88°N, 111.41°W
Report Text: KGCN 272154Z 27003KT 10SM CLR 19/M17 A3036 RMK AO2 SLP253 T01891167
Loading
Personal Weather Stations






























Interactive Weather Map New forecast layout! Learn more

10-Day Weather Forecast

Advertisements
Track Severe Weather on mobile